Time;durP1;ratioP1;P1;durP2;ratioP2;P2;SDS_P1;SDS_P2;PMS_P1;PMS_P2;Temp;Humidity;BMP_temperature;BMP_pressure;BME280_temperature;BME280_humidity;BME280_pressure;Samples;Min_cycle;Max_cycle;Signal;HPM_P1;HPM_P2
2022/01/20 00:00:55;;;;;;;69.10;13.33;;;4.50;99.90;;;;;;5069090;28;20217;-86
2022/01/20 00:03:30;;;;;;;62.27;11.77;;;4.50;99.90;;;;;;5068062;28;20805;-86
2022/01/20 00:06:45;;;;;;;82.93;12.77;;;4.50;99.90;;;;;;5067353;28;20885;-86
2022/01/20 00:09:15;;;;;;;58.10;11.17;;;4.00;99.90;;;;;;5069232;28;20204;-86
2022/01/20 00:28:14;;;;;;;70.13;11.07;;;4.30;99.90;;;;;;5075115;28;20204;-86
2022/01/20 00:30:47;;;;;;;70.90;12.83;;;4.30;99.90;;;;;;5072062;28;20212;-86
2022/01/20 00:33:20;;;;;;;62.07;12.20;;;3.90;99.90;;;;;;5071130;28;20661;-86
2022/01/20 00:38:32;;;;;;;62.53;11.50;;;4.20;99.90;;;;;;5078702;28;20209;-86
2022/01/20 00:40:59;;;;;;;74.90;12.53;;;4.20;99.90;;;;;;5093931;28;20198;-86
2022/01/20 00:43:29;;;;;;;73.10;12.43;;;4.20;99.90;;;;;;5090350;28;20258;-84
2022/01/20 00:45:56;;;;;;;77.10;12.97;;;4.30;99.90;;;;;;5071474;28;20239;-84
2022/01/20 00:48:23;;;;;;;59.87;11.60;;;4.40;99.90;;;;;;5072365;28;20220;-85
2022/01/20 00:50:50;;;;;;;99.57;17.10;;;4.50;99.90;;;;;;5068910;28;20213;-85
2022/01/20 00:53:17;;;;;;;67.37;13.10;;;;;;;;;;5069426;28;20829;-85
2022/01/20 00:55:44;;;;;;;81.23;14.47;;;4.50;99.90;;;;;;5069419;28;20224;-85
2022/01/20 00:58:12;;;;;;;74.33;14.27;;;;;;;;;;5079415;28;20624;-86
2022/01/20 01:00:40;;;;;;;75.70;13.80;;;4.60;99.90;;;;;;5066907;28;20208;-84
2022/01/20 01:03:07;;;;;;;74.87;13.77;;;4.60;99.90;;;;;;5067401;28;20212;-85
2022/01/20 01:05:39;;;;;;;59.80;10.50;;;4.60;99.90;;;;;;5067215;28;20289;-84
2022/01/20 01:08:07;;;;;;;74.27;12.17;;;4.70;99.90;;;;;;5069926;28;20222;-85
2022/01/20 01:10:37;;;;;;;57.80;11.17;;;4.70;99.90;;;;;;5069112;28;20287;-85
2022/01/20 01:13:09;;;;;;;67.67;13.47;;;4.70;99.90;;;;;;5069198;28;20213;-85
2022/01/20 01:15:40;;;;;;;62.33;12.27;;;4.70;99.90;;;;;;5067475;28;20220;-85
2022/01/20 01:23:38;;;;;;;55.93;11.27;;;4.70;99.90;;;;;;5065755;28;20214;-87
2022/01/20 01:26:07;;;;;;;75.93;13.30;;;4.70;99.90;;;;;;5067568;28;20232;-86
2022/01/20 01:28:34;;;;;;;76.50;13.57;;;4.80;99.90;;;;;;5069797;28;20219;-86
2022/01/20 01:31:27;;;;;;;83.37;14.40;;;4.80;99.90;;;;;;5068726;28;20204;-87
2022/01/20 01:33:58;;;;;;;59.77;12.30;;;4.80;99.90;;;;;;5067630;28;20263;-87
2022/01/20 01:36:28;;;;;;;65.40;11.73;;;4.90;99.90;;;;;;5067294;28;20385;-86
2022/01/20 01:38:57;;;;;;;57.20;12.20;;;;;;;;;;5067959;28;20232;-86
2022/01/20 01:41:30;;;;;;;73.93;13.37;;;4.80;99.90;;;;;;5061485;28;20228;-86
2022/01/20 01:44:01;;;;;;;67.07;13.03;;;4.90;99.90;;;;;;5067674;28;20855;-86
2022/01/20 01:46:28;;;;;;;64.60;12.17;;;4.90;99.90;;;;;;5066230;28;20288;-86
2022/01/20 01:48:57;;;;;;;67.70;13.30;;;4.90;99.90;;;;;;5064110;28;20608;-86
2022/01/20 01:51:24;;;;;;;75.90;14.67;;;4.90;99.90;;;;;;5066862;28;20266;-86
2022/01/20 01:53:51;;;;;;;48.40;9.80;;;5.00;99.90;;;;;;5068001;28;20204;-86
2022/01/20 01:56:20;;;;;;;54.50;11.07;;;5.20;99.90;;;;;;5066682;28;20221;-86
2022/01/20 01:58:48;;;;;;;79.40;12.90;;;5.10;99.90;;;;;;5068055;28;20304;-86
2022/01/20 02:01:22;;;;;;;62.93;11.70;;;;;;;;;;5066815;28;20212;-86
2022/01/20 02:03:58;;;;;;;59.50;11.93;;;;;;;;;;5067790;28;20209;-86
2022/01/20 02:06:51;;;;;;;67.50;12.03;;;5.00;99.90;;;;;;5068279;28;20281;-87
2022/01/20 02:09:34;;;;;;;57.53;12.30;;;;;;;;;;5067757;28;20220;-86
2022/01/20 02:17:57;;;;;;;68.13;13.33;;;4.80;99.90;;;;;;5064922;28;20208;-86
2022/01/20 02:20:26;;;;;;;47.13;10.40;;;4.80;99.90;;;;;;5066170;28;20216;-86
2022/01/20 02:22:57;;;;;;;69.70;14.60;;;4.80;99.90;;;;;;5081838;28;20256;-86
2022/01/20 02:25:32;;;;;;;61.17;11.83;;;4.80;99.90;;;;;;5077027;28;20789;-86
2022/01/20 02:28:02;;;;;;;67.63;12.90;;;4.80;99.90;;;;;;5076695;28;20264;-86
2022/01/20 02:30:31;;;;;;;62.83;12.63;;;4.70;99.90;;;;;;5070434;28;20215;-86
2022/01/20 02:33:05;;;;;;;58.20;12.43;;;4.70;99.90;;;;;;5070825;28;20213;-86
2022/01/20 02:35:35;;;;;;;65.53;12.77;;;4.70;99.90;;;;;;5068369;28;20223;-86
2022/01/20 02:38:09;;;;;;;60.20;11.60;;;4.70;99.90;;;;;;5073866;28;20216;-85
2022/01/20 02:46:11;;;;;;;68.40;14.13;;;4.90;99.90;;;;;;5043150;28;20692;-87
2022/01/20 02:48:38;;;;;;;60.47;12.93;;;;;;;;;;5070357;28;20207;-86
2022/01/20 02:51:06;;;;;;;75.37;12.57;;;4.90;99.90;;;;;;5070733;28;20208;-86
2022/01/20 02:53:34;;;;;;;59.37;11.83;;;4.90;99.90;;;;;;5069950;28;20220;-87
2022/01/20 02:56:00;;;;;;;69.03;14.43;;;5.00;99.90;;;;;;5069904;28;20239;-87
2022/01/20 02:58:27;;;;;;;59.90;11.73;;;5.00;99.90;;;;;;5069767;28;20232;-86
2022/01/20 03:00:55;;;;;;;44.83;9.53;;;4.90;99.90;;;;;;5069908;28;20236;-87
2022/01/20 03:03:22;;;;;;;69.27;11.53;;;4.80;99.90;;;;;;5069910;28;20208;-86
2022/01/20 03:05:49;;;;;;;63.80;11.50;;;4.80;99.90;;;;;;5071565;28;20247;-86
2022/01/20 03:08:17;;;;;;;51.97;10.07;;;4.70;99.90;;;;;;5067730;28;20235;-87
2022/01/20 03:10:46;;;;;;;51.03;10.60;;;4.60;99.90;;;;;;5065288;28;20212;-85
2022/01/20 03:13:13;;;;;;;69.13;13.87;;;4.50;99.90;;;;;;5069033;28;20250;-87
2022/01/20 03:15:41;;;;;;;71.30;12.23;;;4.50;99.90;;;;;;5068284;28;20252;-87
2022/01/20 03:18:08;;;;;;;69.70;12.60;;;;;;;;;;5069911;28;20220;-87
2022/01/20 03:20:37;;;;;;;59.30;12.47;;;;;;;;;;5071312;28;20203;-86
2022/01/20 03:23:04;;;;;;;80.17;15.40;;;4.50;99.90;;;;;;5068516;28;20224;-85
2022/01/20 03:25:32;;;;;;;66.87;13.07;;;4.20;99.90;;;;;;5068764;28;20334;-86
2022/01/20 03:28:00;;;;;;;58.63;11.70;;;4.40;99.90;;;;;;5070502;28;20362;-86
2022/01/20 03:30:28;;;;;;;59.70;11.70;;;4.40;99.90;;;;;;5068668;28;20573;-86
2022/01/20 03:32:56;;;;;;;41.40;8.97;;;4.40;99.90;;;;;;5066891;28;20691;-86
2022/01/20 03:35:23;;;;;;;71.73;14.73;;;4.40;99.90;;;;;;5067429;28;20243;-85
2022/01/20 03:38:10;;;;;;;52.20;10.70;;;4.50;99.90;;;;;;5070495;28;20315;-85
2022/01/20 03:40:39;;;;;;;59.33;12.30;;;4.50;99.90;;;;;;5068548;28;20228;-85
2022/01/20 03:43:06;;;;;;;48.57;10.03;;;4.50;99.90;;;;;;5065759;28;20298;-86
2022/01/20 03:45:33;;;;;;;69.47;13.03;;;4.60;99.90;;;;;;5068344;28;20239;-86
2022/01/20 03:48:07;;;;;;;74.43;15.87;;;4.60;99.90;;;;;;5068405;28;20672;-86
2022/01/20 03:53:19;;;;;;;53.47;10.73;;;;;;;;;;5067400;28;20682;-87
2022/01/20 03:55:48;;;;;;;48.23;9.60;;;4.50;99.90;;;;;;5069276;28;20234;-86
2022/01/20 03:58:17;;;;;;;63.30;13.30;;;;;;;;;;5068685;28;20287;-86
2022/01/20 04:00:46;;;;;;;58.53;11.17;;;;;;;;;;5067890;28;20344;-86
2022/01/20 04:03:25;;;;;;;67.50;13.47;;;;;;;;;;5061520;28;20600;-86
2022/01/20 04:06:13;;;;;;;66.03;12.30;;;;;;;;;;5068373;28;20216;-87
2022/01/20 04:08:44;;;;;;;67.43;11.77;;;4.30;99.90;;;;;;5068907;28;20235;-86
2022/01/20 04:11:14;;;;;;;57.07;11.87;;;4.40;99.90;;;;;;5067877;28;20216;-86
2022/01/20 04:13:41;;;;;;;56.90;10.20;;;4.50;99.90;;;;;;5069306;28;20213;-86
2022/01/20 04:16:18;;;;;;;54.87;10.93;;;4.50;99.90;;;;;;5068600;28;20307;-86
2022/01/20 04:18:52;;;;;;;52.03;10.90;;;4.50;99.90;;;;;;5069188;28;20695;-86
2022/01/20 04:21:20;;;;;;;50.30;10.63;;;4.60;99.90;;;;;;5068017;28;20244;-87
2022/01/20 04:23:47;;;;;;;57.90;12.30;;;;;;;;;;5068097;28;20296;-87
2022/01/20 04:26:16;;;;;;;62.30;11.80;;;4.70;99.90;;;;;;5068563;28;20224;-86
2022/01/20 04:28:43;;;;;;;55.17;11.33;;;;;;;;;;5067644;28;20235;-86
2022/01/20 04:31:10;;;;;;;54.17;10.87;;;4.70;99.90;;;;;;5070232;28;20244;-86
2022/01/20 04:33:37;;;;;;;49.00;9.27;;;4.80;99.90;;;;;;5088386;28;20212;-86
2022/01/20 04:36:05;;;;;;;43.60;8.47;;;4.80;99.90;;;;;;5080095;28;20234;-86
2022/01/20 04:38:32;;;;;;;46.50;8.87;;;4.80;99.90;;;;;;5068446;28;20205;-86
2022/01/20 04:41:00;;;;;;;56.13;10.63;;;4.90;99.90;;;;;;5068304;28;20257;-87
2022/01/20 04:43:28;;;;;;;64.00;10.53;;;4.90;99.90;;;;;;5069135;28;20216;-84
2022/01/20 04:46:02;;;;;;;56.47;9.87;;;4.90;99.90;;;;;;5069675;28;20232;-84
2022/01/20 04:48:43;;;;;;;64.43;11.67;;;5.00;99.90;;;;;;5069658;28;20209;-83
2022/01/20 04:59:26;;;;;;;59.13;12.50;;;5.00;99.90;;;;;;5066601;28;20224;-84
2022/01/20 05:01:53;;;;;;;62.97;12.60;;;5.10;99.90;;;;;;5067609;28;20232;-85
2022/01/20 05:04:56;;;;;;;58.37;12.30;;;5.10;99.90;;;;;;5062412;28;20227;-85
2022/01/20 05:07:33;;;;;;;55.40;10.33;;;5.10;99.90;;;;;;5070744;28;20773;-85
2022/01/20 05:10:00;;;;;;;52.50;10.00;;;5.10;99.90;;;;;;5074340;28;20235;-86
2022/01/20 05:12:38;;;;;;;48.27;9.43;;;5.00;99.90;;;;;;5092569;28;20185;-86
2022/01/20 05:15:07;;;;;;;76.50;14.83;;;5.10;99.90;;;;;;5090893;28;20320;-86
2022/01/20 05:17:38;;;;;;;54.10;11.37;;;5.00;99.90;;;;;;5074373;28;20200;-85
2022/01/20 05:20:06;;;;;;;63.77;12.43;;;5.00;99.90;;;;;;5069225;28;20307;-86
2022/01/20 05:22:33;;;;;;;63.90;13.33;;;5.00;99.90;;;;;;5074239;28;20204;-85
2022/01/20 05:25:02;;;;;;;54.80;11.37;;;5.10;99.90;;;;;;5070405;28;20235;-86
2022/01/20 05:27:29;;;;;;;62.27;12.67;;;5.10;99.90;;;;;;5068760;28;20232;-85
2022/01/20 05:29:56;;;;;;;62.10;12.87;;;;;;;;;;5067987;28;20205;-85
2022/01/20 05:32:27;;;;;;;61.80;11.77;;;5.10;99.90;;;;;;5074258;28;20307;-85
2022/01/20 05:34:54;;;;;;;72.07;14.37;;;5.10;99.90;;;;;;5074185;28;20228;-85
2022/01/20 05:37:21;;;;;;;60.40;11.77;;;5.10;99.90;;;;;;5068348;28;20212;-85
2022/01/20 05:39:49;;;;;;;66.73;12.87;;;5.10;99.90;;;;;;5065844;28;20295;-86
2022/01/20 05:42:22;;;;;;;54.13;10.73;;;5.00;99.90;;;;;;5066242;28;20676;-85
2022/01/20 05:45:07;;;;;;;63.20;11.83;;;5.00;99.90;;;;;;5066397;28;20369;-85
2022/01/20 05:47:42;;;;;;;57.73;12.07;;;3.60;99.90;;;;;;5067215;28;20234;-88
2022/01/20 05:50:14;;;;;;;44.13;9.33;;;4.90;99.90;;;;;;5081770;28;20205;-88
2022/01/20 05:52:42;;;;;;;59.97;11.70;;;4.80;99.90;;;;;;5068470;28;20219;-89
2022/01/20 05:55:12;;;;;;;52.90;10.43;;;4.80;99.90;;;;;;5066885;28;20259;-89
2022/01/20 05:57:40;;;;;;;61.67;12.77;;;;;;;;;;5061864;28;20201;-88
2022/01/20 06:00:10;;;;;;;70.23;14.17;;;4.70;99.90;;;;;;5068625;28;20691;-88
2022/01/20 06:05:26;;;;;;;81.40;14.83;;;4.60;99.90;;;;;;5063839;28;20240;-88
2022/01/20 06:07:53;;;;;;;56.07;11.83;;;4.60;99.90;;;;;;5066083;28;20285;-88
2022/01/20 06:10:20;;;;;;;57.27;11.73;;;4.50;99.90;;;;;;5068957;28;20226;-88
2022/01/20 06:12:48;;;;;;;67.43;13.90;;;;;;;;;;5062483;28;20212;-87
2022/01/20 06:15:15;;;;;;;69.07;13.93;;;;;;;;;;5065983;28;20323;-87
2022/01/20 06:17:42;;;;;;;49.43;8.90;;;;;;;;;;5066470;28;20349;-87
2022/01/20 06:20:14;;;;;;;68.93;13.30;;;;;;;;;;5064218;28;21006;-88
2022/01/20 06:22:42;;;;;;;62.13;12.17;;;4.50;99.90;;;;;;5067251;28;20215;-88
2022/01/20 06:25:10;;;;;;;62.63;11.50;;;4.50;99.90;;;;;;5066672;28;20235;-88
2022/01/20 06:27:37;;;;;;;66.50;12.03;;;4.60;99.90;;;;;;5065477;28;20228;-87
2022/01/20 06:30:05;;;;;;;61.27;12.23;;;4.50;99.90;;;;;;5065814;28;20236;-88
2022/01/20 06:32:32;;;;;;;67.77;13.50;;;4.60;99.90;;;;;;5065056;28;20200;-88
2022/01/20 06:35:00;;;;;;;70.63;12.73;;;4.60;99.90;;;;;;5066852;28;20233;-89
2022/01/20 06:37:28;;;;;;;66.63;11.93;;;4.70;99.90;;;;;;5076168;28;20212;-89
2022/01/20 06:39:55;;;;;;;58.93;10.60;;;4.70;99.90;;;;;;5067570;28;20291;-89
2022/01/20 06:42:22;;;;;;;58.03;12.07;;;4.70;99.90;;;;;;5056404;28;20299;-89
2022/01/20 06:44:49;;;;;;;72.73;13.57;;;;;;;;;;5063043;28;20233;-88
2022/01/20 06:47:19;;;;;;;58.17;10.73;;;4.70;99.90;;;;;;5066254;28;20553;-90
2022/01/20 06:49:46;;;;;;;64.67;12.13;;;4.60;99.90;;;;;;5067804;28;20216;-86
2022/01/20 06:52:13;;;;;;;71.43;13.43;;;4.70;99.90;;;;;;5070317;28;20224;-84
2022/01/20 06:54:43;;;;;;;60.17;11.40;;;4.70;99.90;;;;;;5070565;28;20216;-84
2022/01/20 06:57:10;;;;;;;64.47;12.17;;;4.70;99.90;;;;;;5070147;28;20211;-85
2022/01/20 06:59:37;;;;;;;61.47;11.10;;;4.80;99.90;;;;;;5071053;28;20270;-85
2022/01/20 07:02:04;;;;;;;80.83;14.50;;;4.80;99.90;;;;;;5067689;28;20227;-86
2022/01/20 07:04:37;;;;;;;59.03;11.43;;;4.80;99.90;;;;;;5074332;28;20212;-85
2022/01/20 07:07:04;;;;;;;58.80;10.63;;;4.80;99.90;;;;;;5070495;28;20228;-85
2022/01/20 07:09:31;;;;;;;50.93;9.67;;;4.80;99.90;;;;;;5072161;28;20735;-85
2022/01/20 07:12:06;;;;;;;65.93;12.07;;;4.80;99.90;;;;;;5072345;28;20298;-86
2022/01/20 07:14:33;;;;;;;63.00;11.87;;;4.70;99.90;;;;;;5067323;28;20205;-85
2022/01/20 07:17:00;;;;;;;62.57;11.73;;;4.70;99.90;;;;;;5065456;28;20713;-86
2022/01/20 07:19:28;;;;;;;67.03;12.50;;;4.70;99.90;;;;;;5070062;28;20222;-86
2022/01/20 07:21:55;;;;;;;57.90;11.10;;;4.70;99.90;;;;;;5066023;28;20239;-86
2022/01/20 07:24:21;;;;;;;66.47;12.77;;;4.70;99.90;;;;;;5067992;28;20271;-86
2022/01/20 07:26:50;;;;;;;72.80;13.67;;;4.70;99.90;;;;;;5067161;28;20220;-86
2022/01/20 07:29:25;;;;;;;61.23;10.97;;;4.70;99.90;;;;;;5069667;28;20208;-87
2022/01/20 07:31:53;;;;;;;82.90;14.83;;;4.70;99.90;;;;;;5073866;28;20239;-87
2022/01/20 07:34:21;;;;;;;59.87;11.43;;;4.70;99.90;;;;;;5071470;28;20615;-87
2022/01/20 07:36:49;;;;;;;53.27;10.50;;;4.70;99.90;;;;;;5092062;28;20254;-88
2022/01/20 07:39:16;;;;;;;49.23;10.40;;;;;;;;;;5087513;28;20212;-87
2022/01/20 07:41:43;;;;;;;52.57;10.27;;;4.70;99.90;;;;;;5076022;28;20212;-86
2022/01/20 07:44:37;;;;;;;57.10;10.80;;;4.70;99.90;;;;;;5074368;28;20648;-87
2022/01/20 07:47:22;;;;;;;66.63;12.00;;;4.70;99.90;;;;;;5072174;28;20680;-88
2022/01/20 07:49:49;;;;;;;61.97;11.03;;;4.70;99.90;;;;;;5066833;28;20219;-89
2022/01/20 07:52:15;;;;;;;58.60;10.83;;;4.70;99.90;;;;;;5067177;28;20213;-88
2022/01/20 07:54:42;;;;;;;65.63;11.90;;;4.70;99.90;;;;;;5071536;28;20212;-88
2022/01/20 07:57:10;;;;;;;65.33;11.97;;;4.70;99.90;;;;;;5070660;28;20209;-89
2022/01/20 07:59:38;;;;;;;68.37;10.93;;;4.80;99.90;;;;;;5072488;28;20320;-88
2022/01/20 08:02:05;;;;;;;64.73;12.57;;;4.90;99.90;;;;;;5072388;28;20209;-88
2022/01/20 08:04:34;;;;;;;61.57;11.03;;;4.90;99.90;;;;;;5073640;28;20205;-89
2022/01/20 08:07:04;;;;;;;59.27;10.60;;;4.90;99.90;;;;;;5071453;28;20201;-88
2022/01/20 08:09:31;;;;;;;50.63;9.53;;;4.90;99.90;;;;;;5073802;28;20220;-88
2022/01/20 08:12:07;;;;;;;65.43;13.23;;;4.80;99.90;;;;;;5076569;28;20287;-88
2022/01/20 08:14:50;;;;;;;49.23;9.93;;;;;;;;;;5071446;28;20228;-87
2022/01/20 08:17:47;;;;;;;50.53;10.13;;;4.70;99.90;;;;;;5081924;28;20261;-89
2022/01/20 08:20:14;;;;;;;71.37;13.67;;;4.70;99.90;;;;;;5073438;28;20239;-88
2022/01/20 08:22:43;;;;;;;60.10;11.63;;;4.70;99.90;;;;;;5072674;28;20229;-89
2022/01/20 08:25:12;;;;;;;52.77;9.37;;;4.80;99.90;;;;;;5080593;28;20236;-87
2022/01/20 08:27:42;;;;;;;53.07;10.43;;;4.90;99.90;;;;;;5077109;28;20228;-88
2022/01/20 08:30:13;;;;;;;49.17;9.90;;;5.20;99.90;;;;;;5078228;28;20213;-88
2022/01/20 08:32:41;;;;;;;64.87;11.30;;;5.30;99.90;;;;;;5075759;28;20201;-88
2022/01/20 08:35:21;;;;;;;49.10;9.83;;;5.50;99.90;;;;;;5077234;28;20258;-88
2022/01/20 08:38:00;;;;;;;53.93;9.70;;;5.50;99.90;;;;;;5076132;28;20208;-88
2022/01/20 08:40:28;;;;;;;67.10;12.77;;;5.60;99.90;;;;;;5076051;28;20220;-89
2022/01/20 08:42:57;;;;;;;47.50;9.87;;;5.60;99.90;;;;;;5074805;28;20301;-88
2022/01/20 08:45:27;;;;;;;39.73;8.03;;;5.70;99.90;;;;;;5070664;28;20232;-88
2022/01/20 08:47:57;;;;;;;48.97;9.00;;;;;;;;;;5072628;28;20221;-89
2022/01/20 08:50:28;;;;;;;48.07;9.30;;;4.90;99.90;;;;;;5073244;28;20670;-88
2022/01/20 08:52:56;;;;;;;46.10;9.00;;;8.00;99.90;;;;;;5072255;28;20208;-88
2022/01/20 08:55:26;;;;;;;45.33;8.87;;;6.10;99.90;;;;;;5074913;28;20233;-88
2022/01/20 08:57:54;;;;;;;51.17;9.47;;;7.30;99.90;;;;;;5073255;28;20622;-88
2022/01/20 09:00:22;;;;;;;56.57;11.53;;;7.50;99.90;;;;;;5066348;28;20227;-88
2022/01/20 09:03:02;;;;;;;48.33;9.10;;;6.50;99.90;;;;;;5071031;28;20210;-89
2022/01/20 09:05:30;;;;;;;46.97;9.53;;;;;;;;;;5070887;28;20311;-88
2022/01/20 09:08:08;;;;;;;46.40;10.13;;;6.60;99.90;;;;;;5070042;28;20238;-89
2022/01/20 09:10:39;;;;;;;52.70;9.60;;;6.70;99.90;;;;;;5072687;28;20234;-87
2022/01/20 09:16:07;;;;;;;39.30;7.43;;;6.90;99.90;;;;;;5070297;28;20212;-89
2022/01/20 09:19:05;;;;;;;43.33;8.97;;;6.80;99.90;;;;;;5085901;28;20200;-91
2022/01/20 09:21:35;;;;;;;45.43;8.47;;;6.70;99.90;;;;;;5076473;28;20215;-89
2022/01/20 09:24:03;;;;;;;38.67;8.07;;;6.70;99.90;;;;;;5075576;28;20227;-90
2022/01/20 09:26:31;;;;;;;40.97;8.27;;;;;;;;;;5077774;28;20222;-88
2022/01/20 09:29:01;;;;;;;46.13;9.23;;;6.80;99.90;;;;;;5076780;28;20230;-89
2022/01/20 09:31:36;;;;;;;36.13;7.33;;;;;;;;;;5075480;28;20202;-88
2022/01/20 09:34:03;;;;;;;46.67;9.90;;;6.90;99.90;;;;;;5074955;28;20749;-89
2022/01/20 09:36:36;;;;;;;54.30;10.27;;;;;;;;;;5076623;28;20228;-89
2022/01/20 09:39:04;;;;;;;48.67;9.03;;;6.90;99.90;;;;;;5074668;28;20226;-89
2022/01/20 09:41:45;;;;;;;49.30;9.43;;;7.70;99.90;;;;;;5055829;28;20258;-89
2022/01/20 09:44:13;;;;;;;50.07;9.40;;;;;;;;;;5074378;28;20675;-88
2022/01/20 09:46:41;;;;;;;50.07;10.27;;;6.50;99.90;;;;;;5075372;28;20244;-90
2022/01/20 09:49:17;;;;;;;49.47;9.60;;;;;;;;;;5076525;28;20216;-89
2022/01/20 09:51:46;;;;;;;51.47;11.27;;;;;;;;;;5075087;28;20205;-87
2022/01/20 09:54:32;;;;;;;61.00;11.83;;;6.30;99.90;;;;;;5073394;28;20676;-88
2022/01/20 09:57:03;;;;;;;47.10;9.73;;;6.40;99.90;;;;;;5069519;28;20225;-87
2022/01/20 09:59:31;;;;;;;41.73;8.77;;;;;;;;;;5070532;28;20205;-87
2022/01/20 10:01:59;;;;;;;44.50;9.13;;;6.50;99.90;;;;;;5069405;28;20237;-87
2022/01/20 10:04:29;;;;;;;43.53;8.27;;;7.00;99.90;;;;;;5072415;28;20228;-88
2022/01/20 10:07:00;;;;;;;43.00;8.70;;;7.00;99.90;;;;;;5068380;28;20420;-89
2022/01/20 10:09:33;;;;;;;35.27;7.53;;;7.30;99.90;;;;;;5075533;28;20237;-88
2022/01/20 10:12:29;;;;;;;37.60;7.37;;;7.30;99.90;;;;;;5070323;28;20219;-87
2022/01/20 10:15:15;;;;;;;41.87;8.53;;;7.20;99.90;;;;;;5073564;28;20329;-88
2022/01/20 10:18:04;;;;;;;37.93;7.53;;;7.90;99.90;;;;;;5073667;28;20212;-88
2022/01/20 10:20:31;;;;;;;42.13;7.63;;;7.30;99.90;;;;;;5070335;28;20214;-87
2022/01/20 10:23:07;;;;;;;33.63;6.93;;;;;;;;;;5071717;28;20214;-90
2022/01/20 10:26:12;;;;;;;43.10;8.53;;;7.50;99.90;;;;;;5070835;28;20246;-89
2022/01/20 10:28:55;;;;;;;43.77;8.27;;;7.40;99.90;;;;;;5067346;28;20296;-88
2022/01/20 10:31:36;;;;;;;50.57;9.27;;;7.20;99.90;;;;;;5064507;28;20337;-88
2022/01/20 10:34:04;;;;;;;38.50;6.83;;;7.20;99.90;;;;;;5070347;28;20212;-88
2022/01/20 10:36:37;;;;;;;45.50;9.17;;;7.20;99.90;;;;;;5069724;28;20246;-87
2022/01/20 10:39:34;;;;;;;38.60;8.00;;;7.10;99.90;;;;;;5068102;28;20229;-88
2022/01/20 10:42:04;;;;;;;51.27;9.53;;;7.10;99.90;;;;;;5090656;28;20222;-91
2022/01/20 10:44:45;;;;;;;30.97;6.20;;;7.20;99.90;;;;;;5089816;28;20285;-87
2022/01/20 10:47:15;;;;;;;33.23;6.83;;;7.20;99.90;;;;;;5087085;28;20230;-92
2022/01/20 10:49:43;;;;;;;33.83;6.80;;;7.10;99.90;;;;;;5089843;28;20299;-87
2022/01/20 10:52:13;;;;;;;41.57;8.33;;;7.10;99.90;;;;;;5087436;28;20284;-87
2022/01/20 10:54:45;;;;;;;49.67;9.47;;;7.00;99.90;;;;;;5073696;28;20258;-89
2022/01/20 10:57:17;;;;;;;38.33;7.27;;;7.00;99.90;;;;;;5071645;28;20216;-87
2022/01/20 10:59:52;;;;;;;45.33;8.37;;;7.10;99.90;;;;;;5070005;28;20225;-87
2022/01/20 11:02:25;;;;;;;43.57;9.00;;;7.00;99.90;;;;;;5065987;28;20298;-88
2022/01/20 11:04:52;;;;;;;47.67;9.10;;;7.10;99.90;;;;;;5072005;28;20229;-87
2022/01/20 11:07:19;;;;;;;40.87;8.37;;;7.10;99.90;;;;;;5071781;28;20215;-87
2022/01/20 11:09:59;;;;;;;46.13;9.10;;;7.00;99.90;;;;;;5071313;28;20316;-88
2022/01/20 11:12:46;;;;;;;47.83;9.27;;;6.90;99.90;;;;;;5072480;28;20196;-89
2022/01/20 11:15:40;;;;;;;45.97;9.47;;;6.60;99.90;;;;;;5066577;28;20627;-87
2022/01/20 11:18:09;;;;;;;46.60;8.57;;;6.60;99.90;;;;;;5071986;28;20216;-88
2022/01/20 11:20:41;;;;;;;61.67;12.40;;;7.20;99.90;;;;;;5068923;28;20214;-88
2022/01/20 11:23:09;;;;;;;50.03;9.80;;;7.30;99.90;;;;;;5070577;28;20692;-87
2022/01/20 11:26:02;;;;;;;47.33;9.93;;;7.70;99.90;;;;;;5068271;28;20238;-87
2022/01/20 11:28:58;;;;;;;53.47;10.83;;;7.80;99.90;;;;;;5068614;28;20625;-87
2022/01/20 11:31:46;;;;;;;93.33;16.00;;;7.50;99.90;;;;;;5059121;28;20237;-87
2022/01/20 11:34:32;;;;;;;45.30;9.10;;;7.10;99.90;;;;;;5065310;28;20230;-89
2022/01/20 11:37:07;;;;;;;38.77;7.97;;;7.10;99.90;;;;;;5072128;28;20208;-88
2022/01/20 11:39:35;;;;;;;43.13;8.73;;;7.10;99.90;;;;;;5072975;28;20712;-88
2022/01/20 11:42:03;;;;;;;39.00;7.73;;;7.30;99.90;;;;;;5073922;28;20637;-88
2022/01/20 11:44:32;;;;;;;55.73;9.80;;;7.80;99.90;;;;;;5072837;28;20259;-87
2022/01/20 11:47:09;;;;;;;39.40;7.20;;;7.80;99.90;;;;;;5069521;28;20197;-88
2022/01/20 11:49:38;;;;;;;44.30;8.40;;;8.10;99.90;;;;;;5070270;28;20223;-87
2022/01/20 11:52:08;;;;;;;54.87;10.73;;;8.10;99.90;;;;;;5073421;28;20213;-88
2022/01/20 11:54:39;;;;;;;49.63;8.43;;;10.00;99.90;;;;;;5072391;28;20193;-87
2022/01/20 11:57:11;;;;;;;51.60;9.23;;;8.40;99.90;;;;;;5068128;28;20570;-87
2022/01/20 11:59:40;;;;;;;40.37;7.97;;;8.40;99.90;;;;;;5072091;28;20202;-89
2022/01/20 12:02:07;;;;;;;52.93;9.77;;;8.40;99.90;;;;;;5067940;28;20216;-87
2022/01/20 12:04:35;;;;;;;49.90;8.80;;;6.10;99.90;;;;;;5070660;28;20206;-88
2022/01/20 12:07:05;;;;;;;55.47;10.50;;;8.30;99.90;;;;;;5070335;28;20739;-88
2022/01/20 12:09:35;;;;;;;48.60;9.50;;;8.20;99.90;;;;;;5072756;28;20700;-89
2022/01/20 12:12:04;;;;;;;36.53;7.13;;;8.10;99.90;;;;;;5068705;28;20221;-88
2022/01/20 12:14:36;;;;;;;35.97;6.77;;;7.80;99.90;;;;;;5087007;28;20222;-90
2022/01/20 12:17:06;;;;;;;37.90;7.23;;;7.80;99.90;;;;;;5087098;28;20219;-89
2022/01/20 12:19:36;;;;;;;43.20;7.80;;;;;;;;;;5075751;28;20315;-89
2022/01/20 12:22:05;;;;;;;36.90;7.47;;;7.60;99.90;;;;;;5077482;28;20207;-92
2022/01/20 12:24:37;;;;;;;43.70;7.97;;;7.50;99.90;;;;;;5094846;28;20188;-91
2022/01/20 12:27:15;;;;;;;41.97;7.87;;;;;;;;;;5079399;28;20218;-89
2022/01/20 12:29:43;;;;;;;40.83;7.83;;;;;;;;;;5072464;28;20684;-89
2022/01/20 12:32:16;;;;;;;43.83;8.70;;;7.00;99.90;;;;;;5069943;28;20213;-88
2022/01/20 12:34:44;;;;;;;39.77;7.33;;;6.60;99.90;;;;;;5076345;28;20209;-87
2022/01/20 12:37:11;;;;;;;45.80;8.40;;;6.60;99.90;;;;;;5074005;28;20216;-86
2022/01/20 12:39:44;;;;;;;41.63;7.43;;;6.20;99.90;;;;;;5076544;28;20204;-87
2022/01/20 12:42:12;;;;;;;39.33;8.10;;;5.90;99.90;;;;;;5076272;28;20204;-89
2022/01/20 12:44:49;;;;;;;40.00;7.67;;;5.60;99.90;;;;;;5076541;28;20199;-88
2022/01/20 12:47:29;;;;;;;45.83;8.20;;;5.30;99.90;;;;;;5075063;28;20284;-87
2022/01/20 12:49:56;;;;;;;46.27;8.63;;;5.20;99.90;;;;;;5074671;28;20216;-87
2022/01/20 12:52:24;;;;;;;53.77;10.57;;;;;;;;;;5082556;28;20223;-90
2022/01/20 12:54:52;;;;;;;43.97;9.00;;;2.60;99.90;;;;;;5075952;28;20294;-88
2022/01/20 12:57:20;;;;;;;54.47;10.80;;;1.60;99.90;;;;;;5075228;28;20254;-87
2022/01/20 12:59:49;;;;;;;48.80;10.17;;;;;;;;;;5069309;28;20201;-87
2022/01/20 13:02:23;;;;;;;79.67;15.77;;;1.10;99.90;;;;;;5069265;28;20599;-87
2022/01/20 13:04:56;;;;;;;53.87;10.00;;;1.10;99.90;;;;;;5073380;28;20289;-87
2022/01/20 13:07:23;;;;;;;51.87;10.40;;;1.20;99.90;;;;;;5089108;28;20584;-89
2022/01/20 13:10:00;;;;;;;55.53;10.70;;;1.40;99.90;;;;;;5072061;28;20216;-88
2022/01/20 13:12:35;;;;;;;55.63;11.37;;;1.70;99.90;;;;;;5071331;28;20309;-88
2022/01/20 13:15:05;;;;;;;61.63;13.53;;;2.10;99.90;;;;;;5070828;28;20734;-87
2022/01/20 13:17:34;;;;;;;56.43;11.77;;;2.30;99.90;;;;;;5083248;28;20226;-87
2022/01/20 13:20:14;;;;;;;64.57;14.50;;;2.40;99.90;;;;;;5068491;28;20200;-87
2022/01/20 13:22:43;;;;;;;63.67;13.03;;;2.60;99.90;;;;;;5067419;28;20232;-88
2022/01/20 13:25:14;;;;;;;46.80;10.03;;;2.70;99.90;;;;;;5067546;28;20232;-88
2022/01/20 13:27:51;;;;;;;64.40;12.50;;;2.30;99.90;;;;;;5075669;28;20223;-88
2022/01/20 13:30:28;;;;;;;49.03;9.87;;;3.10;99.90;;;;;;5068257;28;20228;-88
2022/01/20 13:32:56;;;;;;;49.67;10.27;;;3.40;99.90;;;;;;5067691;28;20204;-88
2022/01/20 13:35:23;;;;;;;54.60;10.60;;;3.60;99.90;;;;;;5071632;28;20232;-88
2022/01/20 13:38:03;;;;;;;56.53;11.57;;;3.70;99.90;;;;;;5065022;28;20209;-88
2022/01/20 13:40:31;;;;;;;48.30;10.00;;;3.70;99.90;;;;;;5068278;28;20215;-88
2022/01/20 13:45:53;;;;;;;55.70;11.17;;;3.80;99.90;;;;;;5065635;28;20235;-88
2022/01/20 13:48:27;;;;;;;58.23;10.53;;;3.80;99.90;;;;;;5068539;28;20243;-88
2022/01/20 13:50:59;;;;;;;52.53;10.13;;;4.30;99.90;;;;;;5084006;28;20212;-87
2022/01/20 13:53:30;;;;;;;34.63;7.00;;;4.40;99.90;;;;;;5095874;28;20208;-88
2022/01/20 13:55:59;;;;;;;42.00;9.00;;;4.80;99.90;;;;;;5086389;28;20379;-87
2022/01/20 13:58:28;;;;;;;43.90;8.43;;;4.90;99.90;;;;;;5069586;28;20235;-88
2022/01/20 14:00:58;;;;;;;51.23;10.20;;;5.60;99.90;;;;;;5073577;28;20220;-87
2022/01/20 14:03:26;;;;;;;50.27;9.87;;;5.30;99.90;;;;;;5079052;28;20744;-88
2022/01/20 14:05:55;;;;;;;48.50;9.93;;;5.50;99.90;;;;;;5078144;28;20269;-87
2022/01/20 14:08:23;;;;;;;63.03;12.47;;;5.60;99.90;;;;;;5066316;28;20208;-86
2022/01/20 14:10:50;;;;;;;56.10;10.67;;;5.70;99.90;;;;;;5067737;28;20227;-86